Lake Secor, New York
Current Conditions -  °F | °C
As of 8:53 AM on Wednesday 26 Nov 2014 (Local Time) from KDXR Reporting Station
Light Snow Light Snow  
Wind Chill: 27°   Ceiling: 2100
Heat Index: 34°   Visibility: 1.2mi
Dew Point: 30°   Wind: 8mph
Humidity: 85%   Direction: 40°NE
Pressure: 30.12"   Gusts: NA
Location:  41.3759°N, 73.7482°W
Report Text: KDXR 261353Z 04007KT 1 1/4SM -SN BR FEW007 FEW016 OVC021 01/M01 A3012 RMK AO2 RAE10SNB10 SLP203 P0006 T00111011
Loading
Personal Weather Stations






























Interactive Weather Map New forecast layout! Learn more

10-Day Weather Forecast

Advertisements
Track Severe Weather on mobile